PADQ Airport Information

Runway Information
Runway 07 Length 7542 ft width 150 ft
Elevation 68 ft Threshold 1129 ft Heading 92
Runway 25 Length 7542 ft Width 150 ft
Elevation 15 ft Threshold 0 ft Heading 272
Runway 11 Length 5399 ft width 150 ft
Elevation 32 ft Threshold 440 ft Heading 127
Runway 29 Length 5399 ft Width 150 ft
Elevation 25 ft Threshold 556 ft Heading 307
Runway 18 Length 5013 ft width 150 ft
Elevation 15 ft Threshold 0 ft Heading 202
Runway 36 Length 5013 ft Width 150 ft
Elevation 30 ft Threshold 0 ft Heading 22
Airport Frequencies
Type A/D Name ANCHORAGE Frequency 125.1 MHZ
Type ATIS Name ATIS Frequency 135.5 MHZ
Type CTAF Name CTAF Frequency 119.8 MHZ
Type FSS Name KENAI RDO Frequency 119.8 MHZ
Type GND Name GND Frequency 121.9 MHZ
Type MISC Name TWEB Frequency 117.1 MHZ
Type OPS Name OPS Frequency 156.8 MHZ
Type RFSS Name KENAI RDO Frequency 122.2 MHZ
Type TWR Name TWR Frequency 119.8 MHZ
Type UNIC Name UNICOM Frequency 122.8 MHZ
Airport Navaids
Type VORTAC Name Kodiak Frequency 117100 KHZ
Type NDB Name Woody Island Frequency 394 KHZ
Airport Weather Information & NOTAM
ADDS - METARS form results

(2232 UTC 15 April 2021)
Data provider http://aviationweather.gov/metar/data/
 
METAR text: PADQ 152228Z 08007KT 10SM FEW016 SCT024 OVC032 06/03 A3017 RMK AO2 T00560028
Conditions at: PADQ (KODIAK , AK, US) observed 2228 UTC 15 April 2021
Temperature: 5.6°C (42°F)
Dewpoint: 2.8°C (37°F) [RH = 82%]
Pressure (altimeter): 30.17 inches Hg (1021.8 mb)
Winds: from the E (80 degrees) at 8 MPH (7 knots; 3.6 m/s)
Visibility: 10 or more miles (16+ km)
Ceiling: 3200 feet AGL
Clouds: few clouds at 1600 feet AGL
scattered clouds at 2400 feet AGL
overcast cloud deck at 3200 feet AGL
Weather: no significant weather observed at this time

METAR text: PADQ 152216Z 08006KT 10SM SCT014 BKN027 OVC032 05/03 A3016 RMK AO2 T00500028
Conditions at: PADQ (KODIAK , AK, US) observed 2216 UTC 15 April 2021
Temperature: 5.0°C (41°F)
Dewpoint: 2.8°C (37°F) [RH = 86%]
Pressure (altimeter): 30.16 inches Hg (1021.4 mb)
Winds: from the E (80 degrees) at 7 MPH (6 knots; 3.1 m/s)
Visibility: 10 or more miles (16+ km)
Ceiling: 2700 feet AGL
Clouds: scattered clouds at 1400 feet AGL
broken clouds at 2700 feet AGL
overcast cloud deck at 3200 feet AGL
Weather: no significant weather observed at this time

METAR text: PADQ 152153Z 01004KT 10SM BKN014 OVC033 06/03 A3015 RMK AO2 SLP212 T00560028
Conditions at: PADQ (KODIAK , AK, US) observed 2153 UTC 15 April 2021
Temperature: 5.6°C (42°F)
Dewpoint: 2.8°C (37°F) [RH = 82%]
Pressure (altimeter): 30.15 inches Hg (1021.1 mb)
[Sea-level pressure: 1021.2 mb]
Winds: from the N (10 degrees) at 5 MPH (4 knots; 2.1 m/s)
Visibility: 10 or more miles (16+ km)
Ceiling: 1400 feet AGL
Clouds: broken clouds at 1400 feet AGL
overcast cloud deck at 3300 feet AGL
Weather: no significant weather observed at this time

Forecast for: PADQ (KODIAK , AK, US)
Text: PADQ 151743Z 1518/1618 05015KT 6SM -RA BR BKN007 OVC020
Forecast period: 1800 UTC 15 April 2021 to 0000 UTC 16 April 2021
Forecast type: FROM: standard forecast or significant change
Winds: from the NE (50 degrees) at 17 MPH (15 knots; 7.7 m/s)
Visibility: 6 miles (10 km)
Ceiling: 700 feet AGL
Clouds: broken clouds at 700 feet AGL
overcast cloud deck at 2000 feet AGL
Weather: -RA BR  (light rain, mist)
Text: FM160000 05009KT P6SM -RA SCT007 OVC015
Forecast period: 0000 to 0300 UTC 16 April 2021
Forecast type: FROM: standard forecast or significant change
Winds: from the NE (50 degrees) at 10 MPH (9 knots; 4.6 m/s)
Visibility: 6 or more miles (10+ km)
Ceiling: 1500 feet AGL
Clouds: scattered clouds at 700 feet AGL
overcast cloud deck at 1500 feet AGL
Weather: -RA  (light rain)
Text: FM160300 03008KT P6SM BKN050
Forecast period: 0300 to 1800 UTC 16 April 2021
Forecast type: FROM: standard forecast or significant change
Winds: from the NNE (30 degrees) at 9 MPH (8 knots; 4.1 m/s)
Visibility: 6 or more miles (10+ km)
Ceiling: 5000 feet AGL
Clouds: broken clouds at 5000 feet AGL
Weather: no significant weather forecast for this period